Time;durP1;ratioP1;P1;durP2;ratioP2;P2;SDS_P1;SDS_P2;PMS_P1;PMS_P2;Temp;Humidity;BMP_temperature;BMP_pressure;BME280_temperature;BME280_humidity;BME280_pressure;Samples;Min_cycle;Max_cycle;Signal;HPM_P1;HPM_P2
2023/04/07 00:02:07;;;;;;;23.45;17.35;;;7.20;99.90;;;;;;5014752;28;20073;-61
2023/04/07 00:04:32;;;;;;;27.58;18.50;;;7.20;99.90;;;;;;5031329;28;20045;-61
2023/04/07 00:06:58;;;;;;;24.60;18.00;;;7.20;99.90;;;;;;5032514;28;20054;-60
2023/04/07 00:09:23;;;;;;;22.65;17.42;;;7.20;99.90;;;;;;5014355;28;20053;-61
2023/04/07 00:11:50;;;;;;;24.05;17.20;;;7.20;99.90;;;;;;5014065;28;20045;-61
2023/04/07 00:14:16;;;;;;;23.48;17.90;;;7.20;99.90;;;;;;5014379;28;20038;-61
2023/04/07 00:16:42;;;;;;;21.80;17.08;;;7.20;99.90;;;;;;4998111;28;20095;-61
2023/04/07 00:19:07;;;;;;;23.08;17.02;;;7.30;99.90;;;;;;5032141;28;20041;-61
2023/04/07 00:21:33;;;;;;;24.73;18.58;;;7.30;99.90;;;;;;5014328;28;20068;-61
2023/04/07 00:23:59;;;;;;;26.63;19.40;;;7.20;99.90;;;;;;5014792;28;20034;-61
2023/04/07 00:26:30;;;;;;;25.67;17.80;;;7.20;99.90;;;;;;5030728;28;20037;-61
2023/04/07 00:28:56;;;;;;;24.30;17.17;;;7.20;99.90;;;;;;5014071;28;20407;-61
2023/04/07 00:31:22;;;;;;;26.45;18.63;;;7.20;99.90;;;;;;5014061;28;20045;-61
2023/04/07 00:33:48;;;;;;;23.13;17.90;;;7.20;99.90;;;;;;4997315;28;20049;-61
2023/04/07 00:36:14;;;;;;;21.90;17.13;;;7.20;99.90;;;;;;5014404;28;20052;-61
2023/04/07 00:38:40;;;;;;;25.45;18.10;;;7.20;99.90;;;;;;5031947;28;20120;-61
2023/04/07 00:41:05;;;;;;;23.88;17.92;;;7.20;99.90;;;;;;5013552;28;20121;-61
2023/04/07 00:43:31;;;;;;;25.00;18.20;;;7.20;99.90;;;;;;5014338;28;20037;-61
2023/04/07 00:45:57;;;;;;;30.50;19.98;;;7.20;99.90;;;;;;5020725;28;20035;-61
2023/04/07 00:48:24;;;;;;;28.77;20.58;;;7.20;99.90;;;;;;5032441;28;20094;-61
2023/04/07 00:50:50;;;;;;;26.33;19.38;;;7.20;99.90;;;;;;5017993;28;20036;-61
2023/04/07 00:53:16;;;;;;;25.83;19.80;;;7.20;99.90;;;;;;5051454;28;20049;-61
2023/04/07 00:55:42;;;;;;;27.25;18.13;;;7.30;99.90;;;;;;5033627;28;20115;-61
2023/04/07 00:58:08;;;;;;;24.33;17.98;;;7.30;99.90;;;;;;5033940;28;20052;-61
2023/04/07 01:00:41;;;;;;;26.63;19.73;;;7.20;99.90;;;;;;5033013;28;20523;-61
2023/04/07 01:03:13;;;;;;;22.30;17.88;;;7.20;99.90;;;;;;5015832;28;20045;-61
2023/04/07 01:05:58;;;;;;;25.33;19.35;;;7.30;99.90;;;;;;5031888;28;20037;-61
2023/04/07 01:08:29;;;;;;;24.33;18.83;;;7.30;99.90;;;;;;5030007;28;20067;-61
2023/04/07 01:11:12;;;;;;;27.20;19.88;;;7.30;99.90;;;;;;4997767;28;20041;-61
2023/04/07 01:13:45;;;;;;;29.48;21.33;;;7.30;99.90;;;;;;5031454;28;20510;-61
2023/04/07 01:16:15;;;;;;;30.45;21.55;;;7.20;99.90;;;;;;5030944;28;20041;-61
2023/04/07 01:18:46;;;;;;;32.85;22.75;;;7.20;99.90;;;;;;5030674;28;20091;-61
2023/04/07 01:21:17;;;;;;;30.15;22.77;;;7.30;99.90;;;;;;5013725;28;20674;-61
2023/04/07 01:24:05;;;;;;;28.25;20.45;;;7.30;99.90;;;;;;5029766;28;20367;-61
2023/04/07 01:26:32;;;;;;;27.58;19.63;;;7.30;99.90;;;;;;5030129;28;20124;-61
2023/04/07 01:29:19;;;;;;;28.45;20.05;;;7.20;99.90;;;;;;5013360;28;20083;-61
2023/04/07 01:31:47;;;;;;;28.67;19.77;;;7.20;99.90;;;;;;5031826;28;20083;-61
2023/04/07 01:34:14;;;;;;;27.90;20.30;;;7.20;99.90;;;;;;4997049;28;20052;-61
2023/04/07 01:36:42;;;;;;;31.92;21.60;;;7.20;99.90;;;;;;5029538;28;20048;-61
2023/04/07 01:39:09;;;;;;;28.38;20.52;;;7.20;99.90;;;;;;5031842;28;20042;-61
2023/04/07 01:41:36;;;;;;;27.13;20.02;;;7.30;99.90;;;;;;5000944;28;20128;-61
2023/04/07 01:44:03;;;;;;;28.48;21.00;;;7.30;99.90;;;;;;5016208;28;20037;-61
2023/04/07 01:46:29;;;;;;;26.75;20.08;;;7.30;99.90;;;;;;5034531;28;20517;-61
2023/04/07 01:48:55;;;;;;;26.75;19.60;;;7.30;99.90;;;;;;5035183;28;20046;-61
2023/04/07 01:51:23;;;;;;;27.80;20.33;;;7.20;99.90;;;;;;5015939;28;20041;-61
2023/04/07 01:53:50;;;;;;;29.02;21.02;;;7.30;99.90;;;;;;5000754;28;20547;-61
2023/04/07 01:56:15;;;;;;;29.65;20.83;;;7.30;99.90;;;;;;5016584;28;20077;-61
2023/04/07 01:58:41;;;;;;;26.98;20.08;;;7.30;99.90;;;;;;5016349;28;20084;-61
2023/04/07 02:01:07;;;;;;;25.35;20.67;;;7.20;99.90;;;;;;5016747;28;20040;-61
2023/04/07 02:04:04;;;;;;;29.25;21.48;;;7.30;99.90;;;;;;5016889;28;20033;-61
2023/04/07 02:06:40;;;;;;;31.80;22.08;;;7.30;99.90;;;;;;4995559;28;20045;-61
2023/04/07 02:09:09;;;;;;;32.03;22.75;;;7.30;99.90;;;;;;5016932;28;20371;-61
2023/04/07 02:11:37;;;;;;;31.73;22.48;;;7.20;99.90;;;;;;5015723;28;20045;-61
2023/04/07 02:14:06;;;;;;;28.52;21.42;;;7.30;99.90;;;;;;5000498;28;20425;-61
2023/04/07 02:16:32;;;;;;;31.55;22.75;;;7.30;99.90;;;;;;5034382;28;20045;-61
2023/04/07 02:18:58;;;;;;;31.40;24.48;;;7.30;99.90;;;;;;4999450;28;20439;-61
2023/04/07 02:21:26;;;;;;;29.73;21.45;;;7.30;99.90;;;;;;5015839;28;20490;-60
2023/04/07 02:23:51;;;;;;;35.67;23.13;;;7.30;99.90;;;;;;5000269;28;20036;-61
2023/04/07 02:26:17;;;;;;;30.25;21.63;;;7.30;99.90;;;;;;4998596;28;20433;-61
2023/04/07 02:28:42;;;;;;;33.15;23.42;;;7.30;99.90;;;;;;5034394;28;20124;-61
2023/04/07 02:31:08;;;;;;;31.98;22.90;;;7.30;99.90;;;;;;5034131;28;20037;-61
2023/04/07 02:33:34;;;;;;;30.98;22.17;;;7.30;99.90;;;;;;5015421;28;20037;-61
2023/04/07 02:35:59;;;;;;;31.33;22.67;;;7.30;99.90;;;;;;5016304;28;20451;-61
2023/04/07 02:38:25;;;;;;;32.53;22.35;;;7.30;99.90;;;;;;5015820;28;20041;-61
2023/04/07 02:40:51;;;;;;;35.88;24.77;;;7.30;99.90;;;;;;5051896;28;20037;-61
2023/04/07 02:43:18;;;;;;;31.05;21.85;;;7.30;99.90;;;;;;5035705;28;20497;-61
2023/04/07 02:45:43;;;;;;;30.65;22.13;;;7.30;99.90;;;;;;5035910;28;20033;-61
2023/04/07 02:48:09;;;;;;;31.50;22.92;;;7.30;99.90;;;;;;5034825;28;20033;-61
2023/04/07 02:50:35;;;;;;;30.90;21.80;;;7.30;99.90;;;;;;5034595;28;20508;-61
2023/04/07 02:53:00;;;;;;;31.65;23.92;;;7.30;99.90;;;;;;5035482;28;20044;-61
2023/04/07 02:55:26;;;;;;;30.60;23.23;;;7.30;99.90;;;;;;5052444;28;20119;-61
2023/04/07 02:57:51;;;;;;;30.45;22.42;;;7.30;99.90;;;;;;5053793;28;20063;-61
2023/04/07 03:00:17;;;;;;;35.47;23.05;;;7.30;99.90;;;;;;5034265;28;20401;-61
2023/04/07 03:02:43;;;;;;;31.95;22.42;;;7.30;99.90;;;;;;5035864;28;20049;-61
2023/04/07 03:05:08;;;;;;;28.02;21.27;;;7.30;99.90;;;;;;5052779;28;20040;-61
2023/04/07 03:07:34;;;;;;;29.40;22.10;;;7.30;99.90;;;;;;5018006;28;20056;-61
2023/04/07 03:10:00;;;;;;;33.25;22.67;;;7.30;99.90;;;;;;5053191;28;20085;-61
2023/04/07 03:12:25;;;;;;;29.98;21.05;;;7.30;99.90;;;;;;5035144;28;20044;-61
2023/04/07 03:14:51;;;;;;;31.20;21.60;;;7.30;99.90;;;;;;5021952;28;20387;-60
2023/04/07 03:17:17;;;;;;;29.52;21.55;;;7.30;99.90;;;;;;5034924;28;20504;-61
2023/04/07 03:19:42;;;;;;;32.70;22.25;;;7.30;99.90;;;;;;5050746;28;20110;-61
2023/04/07 03:22:08;;;;;;;27.13;20.25;;;7.30;99.90;;;;;;5034330;28;20516;-61
2023/04/07 03:24:34;;;;;;;29.23;21.08;;;7.30;99.90;;;;;;5035186;28;20727;-61
2023/04/07 03:27:01;;;;;;;30.88;21.45;;;7.30;99.90;;;;;;5012333;28;20034;-61
2023/04/07 03:29:26;;;;;;;28.42;20.63;;;7.40;99.90;;;;;;5030933;28;20048;-61
2023/04/07 03:31:52;;;;;;;30.00;22.63;;;7.30;99.90;;;;;;5033067;28;20045;-61
2023/04/07 03:34:18;;;;;;;29.45;21.13;;;7.30;99.90;;;;;;5014852;28;20049;-61
2023/04/07 03:36:43;;;;;;;27.88;21.65;;;7.40;99.90;;;;;;5014221;28;20041;-61
2023/04/07 03:39:14;;;;;;;27.63;19.63;;;7.40;99.90;;;;;;4998573;28;20049;-61
2023/04/07 03:41:40;;;;;;;30.20;21.80;;;7.30;99.90;;;;;;5003925;28;20436;-61
2023/04/07 03:44:06;;;;;;;26.13;19.35;;;7.30;99.90;;;;;;5033754;28;20037;-60
2023/04/07 03:46:31;;;;;;;30.33;21.58;;;7.30;99.90;;;;;;5052464;28;20041;-61
2023/04/07 03:48:57;;;;;;;32.13;21.42;;;7.40;99.90;;;;;;5034933;28;20037;-61
2023/04/07 03:51:23;;;;;;;29.83;22.02;;;7.30;99.90;;;;;;5051541;28;20393;-61
2023/04/07 03:53:48;;;;;;;27.00;19.10;;;7.30;99.90;;;;;;5018197;28;20040;-61
2023/04/07 03:56:14;;;;;;;30.48;21.00;;;7.30;99.90;;;;;;5034102;28;20037;-61
2023/04/07 03:58:41;;;;;;;32.38;20.75;;;7.40;99.90;;;;;;5033623;28;20052;-61
2023/04/07 04:01:07;;;;;;;34.03;21.85;;;7.40;99.90;;;;;;5034414;28;20041;-61
2023/04/07 04:03:33;;;;;;;28.50;20.38;;;7.40;99.90;;;;;;5033315;28;20045;-61
2023/04/07 04:05:59;;;;;;;28.38;20.20;;;7.40;99.90;;;;;;5036537;28;20041;-61
2023/04/07 04:08:25;;;;;;;28.30;19.23;;;7.40;99.90;;;;;;5031443;28;20133;-61
2023/04/07 04:10:51;;;;;;;29.17;19.75;;;7.40;99.90;;;;;;5014180;28;20060;-61
2023/04/07 04:13:16;;;;;;;29.83;19.33;;;7.40;99.90;;;;;;5014213;28;20494;-61
2023/04/07 04:15:42;;;;;;;32.95;21.30;;;7.40;99.90;;;;;;4998493;28;20057;-61
2023/04/07 04:18:08;;;;;;;30.52;20.75;;;7.40;99.90;;;;;;5013716;28;20030;-61
2023/04/07 04:20:33;;;;;;;26.52;19.00;;;7.40;99.90;;;;;;5031695;28;20042;-61
2023/04/07 04:22:59;;;;;;;30.08;19.20;;;7.40;99.90;;;;;;5032119;28;20029;-61
2023/04/07 04:25:25;;;;;;;27.83;19.17;;;7.40;99.90;;;;;;5013072;28;20037;-61
2023/04/07 04:27:51;;;;;;;30.92;20.10;;;7.40;99.90;;;;;;5032367;28;20088;-60
2023/04/07 04:30:16;;;;;;;27.33;18.27;;;7.40;99.90;;;;;;5013859;28;20087;-61
2023/04/07 04:32:42;;;;;;;27.88;18.15;;;7.40;99.90;;;;;;5031420;28;20045;-61
2023/04/07 04:35:08;;;;;;;26.00;17.63;;;7.40;99.90;;;;;;5014031;28;20061;-61
2023/04/07 04:37:34;;;;;;;26.67;18.10;;;7.40;99.90;;;;;;5031488;28;20041;-61
2023/04/07 04:40:00;;;;;;;21.23;14.55;;;7.40;99.90;;;;;;5046579;28;20049;-61
2023/04/07 04:42:26;;;;;;;20.55;13.82;;;7.40;99.90;;;;;;5031699;28;20041;-60
2023/04/07 04:44:52;;;;;;;18.55;13.05;;;7.40;99.90;;;;;;5032074;28;20398;-61
2023/04/07 04:47:18;;;;;;;17.67;12.50;;;7.40;99.90;;;;;;4996473;28;20124;-61
2023/04/07 04:49:44;;;;;;;17.73;11.85;;;7.40;99.90;;;;;;4997959;28;20042;-61
2023/04/07 04:52:10;;;;;;;17.50;11.15;;;7.40;99.90;;;;;;4997632;28;20555;-61
2023/04/07 04:54:35;;;;;;;15.95;10.95;;;7.30;99.90;;;;;;5013054;28;20052;-61
2023/04/07 04:57:01;;;;;;;15.98;11.43;;;7.30;99.90;;;;;;5014145;28;20096;-61
2023/04/07 04:59:27;;;;;;;15.90;12.20;;;7.40;99.90;;;;;;5014016;28;20037;-61
2023/04/07 05:01:52;;;;;;;17.52;13.10;;;7.30;99.90;;;;;;5031052;28;20163;-61
2023/04/07 05:04:18;;;;;;;16.23;11.50;;;7.30;99.90;;;;;;4997369;28;20147;-61
2023/04/07 05:06:43;;;;;;;16.15;11.25;;;7.30;99.90;;;;;;4996987;28;20057;-61
2023/04/07 05:09:09;;;;;;;17.10;11.88;;;7.30;99.90;;;;;;5013983;28;20379;-61
2023/04/07 05:11:35;;;;;;;15.98;11.27;;;7.20;99.90;;;;;;5013906;28;20107;-61
2023/04/07 05:14:00;;;;;;;17.95;11.55;;;7.30;99.90;;;;;;5031300;28;20401;-61
2023/04/07 05:16:26;;;;;;;17.13;12.35;;;7.30;99.90;;;;;;5001109;28;20051;-60
2023/04/07 05:18:52;;;;;;;18.60;13.70;;;7.30;99.90;;;;;;5001396;28;20402;-61
2023/04/07 05:21:19;;;;;;;19.58;13.50;;;7.30;99.90;;;;;;5016364;28;20041;-61
2023/04/07 05:23:45;;;;;;;18.83;13.38;;;7.30;99.90;;;;;;5035741;28;20072;-61
2023/04/07 05:26:10;;;;;;;21.27;16.20;;;7.30;99.90;;;;;;5001225;28;20475;-61
2023/04/07 05:28:36;;;;;;;19.42;12.85;;;7.30;99.90;;;;;;5000192;28;20037;-61
2023/04/07 05:31:02;;;;;;;19.55;13.88;;;7.30;99.90;;;;;;5000945;28;20079;-61
2023/04/07 05:33:27;;;;;;;18.55;14.25;;;7.30;99.90;;;;;;5034906;28;20080;-61
2023/04/07 05:35:53;;;;;;;18.08;12.23;;;7.30;99.90;;;;;;5016999;28;20029;-61
2023/04/07 05:38:19;;;;;;;19.40;13.25;;;7.30;99.90;;;;;;5017136;28;20037;-61
2023/04/07 05:40:46;;;;;;;24.05;17.67;;;7.30;99.90;;;;;;5001004;28;20037;-61
2023/04/07 05:43:11;;;;;;;18.17;13.05;;;7.30;99.90;;;;;;4999960;28;20033;-61
2023/04/07 05:45:37;;;;;;;19.08;14.43;;;7.30;99.90;;;;;;5034510;28;20037;-60
2023/04/07 05:48:02;;;;;;;20.13;14.88;;;7.30;99.90;;;;;;5027768;28;20052;-61
2023/04/07 05:50:28;;;;;;;18.88;14.77;;;7.30;99.90;;;;;;5005017;28;20474;-61
2023/04/07 05:52:54;;;;;;;17.25;12.20;;;7.30;99.90;;;;;;5017430;28;20121;-61
2023/04/07 05:55:20;;;;;;;18.45;13.50;;;7.40;99.90;;;;;;5016911;28;20467;-60
2023/04/07 05:57:46;;;;;;;18.92;13.65;;;7.30;99.90;;;;;;5042828;28;20509;-61
2023/04/07 06:00:13;;;;;;;19.50;14.27;;;7.30;99.90;;;;;;5049528;28;20041;-61
2023/04/07 06:02:39;;;;;;;16.08;11.98;;;7.30;99.90;;;;;;5029162;28;20048;-60
2023/04/07 06:05:05;;;;;;;19.25;13.23;;;7.30;99.90;;;;;;5035937;28;20218;-61
2023/04/07 06:07:31;;;;;;;19.25;13.98;;;7.30;99.90;;;;;;5036200;28;20064;-61
2023/04/07 06:09:57;;;;;;;20.77;14.15;;;7.40;99.90;;;;;;5054620;28;20044;-61
2023/04/07 06:12:22;;;;;;;18.13;14.45;;;7.30;99.90;;;;;;5034143;28;20053;-61
2023/04/07 06:14:53;;;;;;;19.45;14.00;;;7.40;99.90;;;;;;5013958;28;20414;-61
2023/04/07 06:17:19;;;;;;;19.90;14.38;;;7.30;99.90;;;;;;5019899;28;20079;-61
2023/04/07 06:19:45;;;;;;;18.80;13.73;;;7.30;99.90;;;;;;5052107;28;20080;-61
2023/04/07 06:22:11;;;;;;;22.30;15.75;;;7.40;99.90;;;;;;5050260;28;20478;-61
2023/04/07 06:24:36;;;;;;;18.67;13.57;;;7.40;99.90;;;;;;5014611;28;20043;-61
2023/04/07 06:27:02;;;;;;;19.50;15.75;;;7.40;99.90;;;;;;5033366;28;20037;-61
2023/04/07 06:29:31;;;;;;;20.25;14.70;;;7.30;99.90;;;;;;5046991;28;20048;-61
2023/04/07 06:31:57;;;;;;;21.00;15.15;;;7.40;99.90;;;;;;5016704;28;20112;-61
2023/04/07 06:34:23;;;;;;;21.90;16.52;;;7.40;99.90;;;;;;5018815;28;20128;-61
2023/04/07 06:36:48;;;;;;;20.85;15.77;;;7.40;99.90;;;;;;5013626;28;20048;-61
2023/04/07 06:39:14;;;;;;;21.48;16.33;;;7.40;99.90;;;;;;5032205;28;20485;-61
2023/04/07 06:41:41;;;;;;;23.38;17.55;;;7.40;99.90;;;;;;5013885;28;20037;-61
2023/04/07 06:44:09;;;;;;;21.02;15.70;;;7.40;99.90;;;;;;5031571;28;20355;-61
2023/04/07 06:46:36;;;;;;;22.52;17.02;;;7.40;99.90;;;;;;5030474;28;20056;-61
2023/04/07 06:49:02;;;;;;;23.13;16.83;;;7.40;99.90;;;;;;5013274;28;20049;-61
2023/04/07 06:51:28;;;;;;;23.95;17.85;;;7.40;99.90;;;;;;5013692;28;20041;-61
2023/04/07 06:53:54;;;;;;;26.80;18.35;;;7.40;99.90;;;;;;5038164;28;20515;-61
2023/04/07 06:56:21;;;;;;;25.23;18.52;;;7.40;99.90;;;;;;5041822;28;20351;-61
2023/04/07 06:58:47;;;;;;;26.77;17.80;;;7.40;99.90;;;;;;5031103;28;20047;-61
2023/04/07 07:01:12;;;;;;;27.20;18.65;;;7.40;99.90;;;;;;5015506;28;20040;-61
2023/04/07 07:03:38;;;;;;;24.65;17.83;;;7.40;99.90;;;;;;5033274;28;20124;-61
2023/04/07 07:06:04;;;;;;;27.98;18.88;;;7.50;99.90;;;;;;5016658;28;20037;-61
2023/04/07 07:08:30;;;;;;;27.50;19.48;;;7.50;99.90;;;;;;5025964;28;20057;-61
2023/04/07 07:10:55;;;;;;;25.80;18.75;;;7.50;99.90;;;;;;5022404;28;20086;-61
2023/04/07 07:13:23;;;;;;;24.38;18.30;;;7.50;99.90;;;;;;5028716;28;20506;-61
2023/04/07 07:15:49;;;;;;;23.80;18.13;;;7.60;99.90;;;;;;5046461;28;20401;-61
2023/04/07 07:18:16;;;;;;;30.70;20.58;;;7.60;99.90;;;;;;5050510;28;20041;-61
2023/04/07 07:20:42;;;;;;;23.15;18.00;;;7.70;99.90;;;;;;5032051;28;20044;-61
2023/04/07 07:23:07;;;;;;;23.15;18.10;;;7.70;99.90;;;;;;5014276;28;20037;-61
2023/04/07 07:25:33;;;;;;;24.80;18.38;;;7.70;99.90;;;;;;5044174;28;20073;-61
2023/04/07 07:27:59;;;;;;;25.63;18.25;;;7.80;99.90;;;;;;4996059;28;20044;-61
2023/04/07 07:30:25;;;;;;;23.35;17.88;;;7.80;99.90;;;;;;5017142;28;20041;-61
2023/04/07 07:32:52;;;;;;;26.73;18.70;;;7.80;99.90;;;;;;5036803;28;20041;-61
2023/04/07 07:35:18;;;;;;;24.60;19.13;;;7.80;99.90;;;;;;5032840;28;20826;-61
2023/04/07 07:37:44;;;;;;;25.27;18.52;;;7.90;99.90;;;;;;5015188;28;20132;-60
2023/04/07 07:40:10;;;;;;;26.50;19.95;;;7.90;99.90;;;;;;5032028;28;20143;-61
2023/04/07 07:42:37;;;;;;;25.27;18.13;;;8.00;99.90;;;;;;5031484;28;20083;-61
2023/04/07 07:45:03;;;;;;;22.15;15.82;;;8.00;99.90;;;;;;5048195;28;20049;-61
2023/04/07 07:47:29;;;;;;;22.48;17.30;;;8.00;99.90;;;;;;5014142;28;20090;-61
2023/04/07 07:49:55;;;;;;;21.65;16.33;;;8.00;99.90;;;;;;5013248;28;20470;-61
2023/04/07 07:52:20;;;;;;;24.83;17.10;;;8.00;99.90;;;;;;5050006;28;20053;-61
2023/04/07 07:54:47;;;;;;;21.25;16.35;;;8.10;99.90;;;;;;5050412;28;20044;-61
2023/04/07 07:57:13;;;;;;;25.48;17.88;;;8.10;99.90;;;;;;5015032;28;20049;-62
2023/04/07 07:59:41;;;;;;;26.02;18.23;;;8.20;99.90;;;;;;5031966;28;20048;-61
2023/04/07 08:02:08;;;;;;;22.27;16.67;;;8.20;99.90;;;;;;5049493;28;20045;-61
2023/04/07 08:04:35;;;;;;;24.00;17.45;;;8.30;99.90;;;;;;5029664;28;20503;-61
2023/04/07 08:07:01;;;;;;;22.42;17.17;;;8.30;99.90;;;;;;5032019;28;20079;-61
2023/04/07 08:09:26;;;;;;;25.27;19.50;;;8.30;99.90;;;;;;5031702;28;20504;-61
2023/04/07 08:11:52;;;;;;;20.73;16.30;;;8.40;99.90;;;;;;5040837;28;20046;-61
2023/04/07 08:14:18;;;;;;;21.55;16.70;;;8.40;99.90;;;;;;5000319;28;20048;-61
2023/04/07 08:16:44;;;;;;;20.75;14.60;;;8.40;99.90;;;;;;5025400;28;20047;-61
2023/04/07 08:19:11;;;;;;;22.05;16.50;;;8.40;99.90;;;;;;5031620;28;20044;-61
2023/04/07 08:21:37;;;;;;;20.05;14.77;;;8.40;99.90;;;;;;5047963;28;20498;-61
2023/04/07 08:24:03;;;;;;;21.45;15.18;;;8.40;99.90;;;;;;5030622;28;20091;-61
2023/04/07 08:26:29;;;;;;;19.02;14.68;;;8.50;99.90;;;;;;5048569;28;20374;-61
2023/04/07 08:28:55;;;;;;;22.17;14.32;;;8.50;99.90;;;;;;5026208;28;20052;-61
2023/04/07 08:31:20;;;;;;;17.88;14.63;;;8.60;99.90;;;;;;5033829;28;20038;-61
2023/04/07 08:33:46;;;;;;;20.80;16.17;;;8.70;99.90;;;;;;5001154;28;20041;-61
2023/04/07 08:36:12;;;;;;;19.90;14.07;;;8.70;99.90;;;;;;5049574;28;20116;-61
2023/04/07 08:38:37;;;;;;;19.90;15.27;;;8.80;99.90;;;;;;5029487;28;20052;-61
2023/04/07 08:41:09;;;;;;;20.88;16.38;;;8.90;99.90;;;;;;5007331;28;20049;-61
2023/04/07 08:43:38;;;;;;;23.02;17.13;;;8.90;99.90;;;;;;5004572;28;20048;-61
2023/04/07 08:46:04;;;;;;;22.90;19.02;;;9.00;99.90;;;;;;5030373;28;20045;-61
2023/04/07 08:48:34;;;;;;;21.25;14.57;;;9.00;99.90;;;;;;5004933;28;20037;-61
2023/04/07 08:51:05;;;;;;;21.38;17.55;;;9.00;99.90;;;;;;5049838;28;20520;-62
2023/04/07 08:53:46;;;;;;;19.67;15.82;;;9.00;99.90;;;;;;5034167;28;20044;-62
2023/04/07 08:56:13;;;;;;;17.80;13.93;;;9.10;99.90;;;;;;5035303;28;20049;-61
2023/04/07 08:58:39;;;;;;;19.05;15.07;;;9.10;99.90;;;;;;5015844;28;20490;-61
2023/04/07 09:01:05;;;;;;;18.52;14.07;;;9.10;99.90;;;;;;5032361;28;20447;-61
2023/04/07 09:03:32;;;;;;;18.77;14.60;;;9.20;99.90;;;;;;5024770;28;20033;-61
2023/04/07 09:06:00;;;;;;;15.70;12.93;;;9.20;99.90;;;;;;5034561;28;20076;-62
2023/04/07 09:08:26;;;;;;;16.10;11.45;;;9.20;99.90;;;;;;5017493;28;20111;-61
2023/04/07 09:10:53;;;;;;;16.33;12.00;;;9.20;99.90;;;;;;4999336;28;20129;-62
2023/04/07 09:13:19;;;;;;;16.75;12.32;;;9.20;99.90;;;;;;5002803;28;20388;-61
2023/04/07 09:15:45;;;;;;;13.65;10.00;;;9.20;99.90;;;;;;5028542;28;20048;-62
2023/04/07 09:18:11;;;;;;;15.85;10.65;;;9.30;99.90;;;;;;4984245;28;20041;-62
2023/04/07 09:20:56;;;;;;;13.13;10.15;;;9.20;99.90;;;;;;5007007;28;20103;-62
2023/04/07 09:23:33;;;;;;;15.15;11.38;;;9.30;99.90;;;;;;5012452;28;20037;-62
2023/04/07 09:26:17;;;;;;;12.65;10.23;;;9.30;99.90;;;;;;5006582;28;20038;-62
2023/04/07 09:28:47;;;;;;;13.23;9.35;;;9.30;99.90;;;;;;4995248;28;20041;-62
2023/04/07 09:31:13;;;;;;;12.77;10.13;;;9.40;99.90;;;;;;4998919;28;20045;-62
2023/04/07 09:33:39;;;;;;;13.50;9.18;;;9.40;99.90;;;;;;4993697;28;20030;-63
2023/04/07 09:36:06;;;;;;;13.80;9.38;;;9.40;99.90;;;;;;5016689;28;20069;-63
2023/04/07 09:38:33;;;;;;;11.63;8.98;;;9.40;99.90;;;;;;5001094;28;20117;-62
2023/04/07 09:41:13;;;;;;;13.50;9.85;;;9.40;99.90;;;;;;5035210;28;20033;-62
2023/04/07 09:43:45;;;;;;;10.18;7.65;;;9.50;99.90;;;;;;5034719;28;20397;-62
2023/04/07 09:46:11;;;;;;;10.82;8.27;;;9.40;99.90;;;;;;5017324;28;20045;-62
2023/04/07 09:48:38;;;;;;;10.55;7.65;;;9.50;99.90;;;;;;5034068;28;20439;-62
2023/04/07 09:51:10;;;;;;;11.77;8.43;;;9.50;99.90;;;;;;5016895;28;20132;-62
2023/04/07 09:53:50;;;;;;;10.60;7.80;;;9.50;99.90;;;;;;5016791;28;20099;-62
2023/04/07 09:56:23;;;;;;;10.13;7.80;;;9.50;99.90;;;;;;5015904;28;20049;-61
2023/04/07 09:58:52;;;;;;;10.13;7.47;;;9.60;99.90;;;;;;5000909;28;20049;-62
2023/04/07 10:01:19;;;;;;;9.50;7.57;;;9.60;99.90;;;;;;5033830;28;20034;-62
2023/04/07 10:03:46;;;;;;;11.45;8.40;;;9.60;99.90;;;;;;5034069;28;20390;-62
2023/04/07 10:06:12;;;;;;;11.30;8.30;;;9.70;99.90;;;;;;5016681;28;20091;-62
2023/04/07 10:08:41;;;;;;;13.60;8.38;;;9.70;99.90;;;;;;5052577;28;20056;-62
2023/04/07 10:11:08;;;;;;;10.85;7.90;;;9.70;99.90;;;;;;5019149;28;20051;-62
2023/04/07 10:13:35;;;;;;;11.32;8.00;;;9.70;99.90;;;;;;5019941;28;20075;-62
2023/04/07 10:16:06;;;;;;;8.98;6.40;;;9.80;99.90;;;;;;5019821;28;20049;-62
2023/04/07 10:18:37;;;;;;;9.00;7.20;;;9.90;99.90;;;;;;5035608;28;20045;-61
2023/04/07 10:21:09;;;;;;;10.23;7.35;;;9.90;99.90;;;;;;5035985;28;20045;-62
2023/04/07 10:23:53;;;;;;;14.02;9.15;;;10.00;99.90;;;;;;5035623;28;20397;-61
2023/04/07 10:26:24;;;;;;;11.65;7.93;;;10.00;99.90;;;;;;5019277;28;20044;-62
2023/04/07 10:28:54;;;;;;;11.88;8.13;;;10.00;99.90;;;;;;5020271;28;20032;-62
2023/04/07 10:31:21;;;;;;;10.52;7.25;;;10.00;99.90;;;;;;5034975;28;20508;-62
2023/04/07 10:33:50;;;;;;;12.32;8.60;;;10.10;99.90;;;;;;5036375;28;20100;-61
2023/04/07 10:36:22;;;;;;;10.80;7.70;;;10.10;99.90;;;;;;5035602;28;20124;-62
2023/04/07 10:39:06;;;;;;;9.60;7.35;;;10.20;99.90;;;;;;5035588;28;20038;-62
2023/04/07 10:41:40;;;;;;;10.45;6.72;;;10.20;99.90;;;;;;5036074;28;20049;-61
2023/04/07 10:44:09;;;;;;;9.27;6.33;;;10.30;99.90;;;;;;5053681;28;20040;-62
2023/04/07 10:46:44;;;;;;;11.38;7.80;;;10.40;99.90;;;;;;5035200;28;20282;-61
2023/04/07 10:49:12;;;;;;;9.80;7.22;;;10.30;99.90;;;;;;5020721;28;20041;-61
2023/04/07 10:51:38;;;;;;;9.95;6.40;;;10.30;99.90;;;;;;5032692;28;20059;-61
2023/04/07 10:54:17;;;;;;;10.25;6.82;;;10.40;99.90;;;;;;5021416;28;20469;-61
2023/04/07 10:57:01;;;;;;;9.60;6.80;;;10.30;99.90;;;;;;5030215;28;20048;-61
2023/04/07 10:59:30;;;;;;;12.52;8.27;;;10.20;99.90;;;;;;5014854;28;20045;-61
2023/04/07 11:02:13;;;;;;;8.55;6.30;;;10.20;99.90;;;;;;5016154;28;20120;-61
2023/04/07 11:04:44;;;;;;;10.38;7.25;;;10.10;99.90;;;;;;5015689;28;20141;-61
2023/04/07 11:07:12;;;;;;;12.52;8.27;;;10.10;99.90;;;;;;4998526;28;20569;-61
2023/04/07 11:09:39;;;;;;;12.95;8.70;;;10.00;99.90;;;;;;4999469;28;20037;-61
2023/04/07 11:12:05;;;;;;;15.20;10.43;;;10.20;99.90;;;;;;5026065;28;20045;-61
2023/04/07 11:14:32;;;;;;;11.48;7.65;;;10.20;99.90;;;;;;5018052;28;20067;-61
2023/04/07 11:17:00;;;;;;;12.18;9.60;;;10.30;99.90;;;;;;5035491;28;20446;-61
2023/04/07 11:19:26;;;;;;;11.45;8.63;;;10.30;99.90;;;;;;5026911;28;20041;-61
2023/04/07 11:22:15;;;;;;;11.10;8.98;;;10.30;99.90;;;;;;5044206;28;20041;-61
2023/04/07 11:24:41;;;;;;;13.52;7.43;;;10.40;99.90;;;;;;5050283;28;20036;-61
2023/04/07 11:27:12;;;;;;;10.48;7.60;;;10.40;99.90;;;;;;5032345;28;20397;-61
2023/04/07 11:29:37;;;;;;;11.48;6.85;;;10.50;99.90;;;;;;4999052;28;20091;-61
2023/04/07 11:32:03;;;;;;;11.60;8.02;;;10.50;99.90;;;;;;5031530;28;20485;-61
2023/04/07 11:34:34;;;;;;;10.70;7.45;;;10.50;99.90;;;;;;5027191;28;20478;-61
2023/04/07 11:37:19;;;;;;;11.95;9.57;;;10.60;99.90;;;;;;5027719;28;20036;-61
2023/04/07 11:39:54;;;;;;;11.75;8.05;;;10.70;99.90;;;;;;5004590;28;20033;-61
2023/04/07 11:42:37;;;;;;;14.60;8.50;;;10.70;99.90;;;;;;5047555;28;20041;-61
2023/04/07 11:45:03;;;;;;;8.68;6.60;;;10.70;99.90;;;;;;5014828;28;20041;-61
2023/04/07 11:47:39;;;;;;;10.25;7.05;;;10.70;99.90;;;;;;4998493;28;20124;-62
2023/04/07 11:50:05;;;;;;;9.35;6.85;;;10.80;99.90;;;;;;5040769;28;20048;-61
2023/04/07 11:52:46;;;;;;;10.15;7.03;;;10.80;99.90;;;;;;5023700;28;20118;-62
2023/04/07 11:55:20;;;;;;;10.52;7.68;;;10.80;99.90;;;;;;5025835;28;20544;-62
2023/04/07 11:57:46;;;;;;;12.23;8.63;;;10.90;99.90;;;;;;5039171;28;20087;-62
2023/04/07 12:00:13;;;;;;;10.80;6.45;;;11.00;99.90;;;;;;5027867;28;20048;-62
2023/04/07 12:02:39;;;;;;;9.57;6.60;;;11.00;99.90;;;;;;5013843;28;20537;-62
2023/04/07 12:05:05;;;;;;;11.23;7.00;;;11.00;99.90;;;;;;5025737;28;20120;-62
2023/04/07 12:07:32;;;;;;;10.32;7.65;;;11.10;99.90;;;;;;5045941;28;20040;-62
2023/04/07 12:09:57;;;;;;;10.00;7.43;;;11.20;99.90;;;;;;5032458;28;20507;-62
2023/04/07 12:12:32;;;;;;;12.77;8.93;;;11.30;99.90;;;;;;5032740;28;20136;-62
2023/04/07 12:14:57;;;;;;;10.13;6.82;;;11.40;99.90;;;;;;5019447;28;20124;-61
2023/04/07 12:17:26;;;;;;;9.55;6.32;;;11.30;99.90;;;;;;5034050;28;20136;-62
2023/04/07 12:19:52;;;;;;;11.05;7.53;;;11.30;99.90;;;;;;5015757;28;20561;-62
2023/04/07 12:22:18;;;;;;;11.77;7.68;;;11.30;99.90;;;;;;5011106;28;20052;-62
2023/04/07 12:24:45;;;;;;;10.82;7.70;;;11.40;99.90;;;;;;5022165;28;20052;-62
2023/04/07 12:27:11;;;;;;;10.18;7.38;;;11.50;99.90;;;;;;5008184;28;20405;-62
2023/04/07 12:29:37;;;;;;;10.75;7.25;;;11.60;99.90;;;;;;4996985;28;20129;-62
2023/04/07 12:32:03;;;;;;;10.80;8.32;;;11.80;99.90;;;;;;5012052;28;20199;-62
2023/04/07 12:34:29;;;;;;;13.25;8.13;;;12.00;99.90;;;;;;5037540;28;20044;-63
2023/04/07 12:36:55;;;;;;;9.93;7.43;;;12.10;99.90;;;;;;5015735;28;20191;-62
2023/04/07 12:39:20;;;;;;;10.77;7.93;;;12.10;99.90;;;;;;5039306;28;20048;-62
2023/04/07 12:41:47;;;;;;;11.15;8.23;;;12.20;99.90;;;;;;5023646;28;20030;-63